createdAt,value
2018-11-20T00:02:28.851Z,-1.20
2018-11-20T00:05:21.851Z,-1.20
2018-11-20T00:08:11.068Z,-1.10
2018-11-20T00:10:56.510Z,-1.10
2018-11-20T00:13:43.999Z,-1.00
2018-11-20T00:16:27.313Z,-0.90
2018-11-20T00:19:13.085Z,-0.90
2018-11-20T00:21:59.034Z,-0.90
2018-11-20T00:24:44.787Z,-0.90
2018-11-20T00:27:37.780Z,-0.90
2018-11-20T00:30:24.764Z,-0.90
2018-11-20T00:33:01.025Z,-0.90
2018-11-20T00:35:48.049Z,-0.90
2018-11-20T00:38:33.974Z,-0.90
2018-11-20T00:41:23.872Z,-0.90
2018-11-20T00:44:09.697Z,-0.90
2018-11-20T00:47:00.259Z,-0.90
2018-11-20T00:49:51.601Z,-0.90
2018-11-20T00:52:44.757Z,-0.90
2018-11-20T00:56:08.073Z,-0.80
2018-11-20T00:59:01.612Z,-0.80
2018-11-20T01:01:47.009Z,-0.80
2018-11-20T01:04:33.865Z,-0.80
2018-11-20T01:07:29.578Z,-0.80
2018-11-20T01:10:22.281Z,-0.80
2018-11-20T01:13:00.200Z,-0.80
2018-11-20T01:15:50.420Z,-0.80
2018-11-20T01:18:36.790Z,-0.80
2018-11-20T01:21:28.131Z,-0.70
2018-11-20T01:24:15.083Z,-0.70
2018-11-20T01:26:59.434Z,-0.70
2018-11-20T01:29:45.038Z,-0.80
2018-11-20T01:32:33.827Z,-0.80
2018-11-20T01:35:27.046Z,-0.80
2018-11-20T01:38:15.138Z,-0.80
2018-11-20T01:40:57.028Z,-0.80
2018-11-20T01:43:41.600Z,-0.80
2018-11-20T01:46:27.000Z,-0.90
2018-11-20T01:49:09.677Z,-0.90
2018-11-20T01:52:03.010Z,-0.90
2018-11-20T01:54:59.311Z,-0.90
2018-11-20T01:57:45.384Z,-0.90
2018-11-20T02:00:37.211Z,-0.90
2018-11-20T02:03:33.376Z,-0.90
2018-11-20T02:06:20.433Z,-1.00
2018-11-20T02:09:10.806Z,-0.90
2018-11-20T02:11:56.566Z,-0.80
2018-11-20T02:14:43.576Z,-0.80
2018-11-20T02:17:40.562Z,-0.80
2018-11-20T02:20:27.252Z,-0.80
2018-11-20T02:23:12.907Z,-0.90
2018-11-20T02:25:58.659Z,-0.80
2018-11-20T02:28:51.849Z,-0.80
2018-11-20T02:31:36.354Z,-0.70
2018-11-20T02:34:30.280Z,-0.70
2018-11-20T02:37:15.916Z,-0.70
2018-11-20T02:40:03.228Z,-0.60
2018-11-20T02:42:50.135Z,-0.60
2018-11-20T02:45:42.207Z,-0.60
2018-11-20T02:48:38.078Z,-0.50
2018-11-20T02:51:18.090Z,-0.50
2018-11-20T02:54:05.884Z,-0.50
2018-11-20T02:56:59.099Z,-0.40
2018-11-20T03:00:04.323Z,-0.30
2018-11-20T03:02:57.340Z,-0.30
2018-11-20T03:05:44.301Z,-0.30
2018-11-20T03:08:40.292Z,-0.20
2018-11-20T03:11:42.815Z,-0.10
2018-11-20T03:14:26.519Z,-0.10
2018-11-20T03:17:20.987Z,-0.10
2018-11-20T03:20:06.781Z,-0.10
2018-11-20T03:22:50.352Z,-0.10
2018-11-20T03:26:14.694Z,-0.10
2018-11-20T03:29:52.215Z,-0.10
2018-11-20T03:32:37.499Z,0.00
2018-11-20T03:35:23.670Z,0.00
2018-11-20T03:38:14.885Z,0.00
2018-11-20T03:41:07.801Z,0.00
2018-11-20T03:43:54.719Z,0.00
2018-11-20T03:46:39.027Z,0.10
2018-11-20T03:49:25.986Z,0.10
2018-11-20T03:52:12.931Z,0.10
2018-11-20T03:54:58.504Z,0.10
2018-11-20T03:57:48.441Z,0.10
2018-11-20T04:00:35.317Z,0.10
2018-11-20T04:03:20.500Z,0.10
2018-11-20T04:06:02.566Z,0.20
2018-11-20T04:08:49.586Z,0.20
2018-11-20T04:11:48.846Z,0.20
2018-11-20T04:14:34.519Z,0.20
2018-11-20T04:17:20.852Z,0.20
2018-11-20T04:19:54.103Z,0.20
2018-11-20T04:22:52.136Z,0.20
2018-11-20T04:25:41.942Z,0.20
2018-11-20T04:28:34.848Z,0.20
2018-11-20T04:32:04.928Z,0.20
2018-11-20T04:34:57.909Z,0.20
2018-11-20T04:37:33.536Z,0.20
2018-11-20T04:40:10.768Z,0.30
2018-11-20T04:43:06.749Z,0.30
2018-11-20T04:45:56.488Z,0.30
2018-11-20T04:48:49.172Z,0.30
2018-11-20T04:51:29.061Z,0.30
2018-11-20T04:54:18.987Z,0.30
2018-11-20T04:57:24.079Z,0.40
2018-11-20T05:00:11.131Z,0.40
2018-11-20T05:02:56.702Z,0.40
2018-11-20T05:05:53.665Z,0.40
2018-11-20T05:08:46.715Z,0.40
2018-11-20T05:11:33.817Z,0.40
2018-11-20T05:14:23.928Z,0.50
2018-11-20T05:16:59.163Z,0.50
2018-11-20T05:19:44.972Z,0.50
2018-11-20T05:22:26.763Z,0.50
2018-11-20T05:25:21.254Z,0.50
2018-11-20T05:28:18.817Z,0.50
2018-11-20T05:30:57.848Z,0.50
2018-11-20T05:33:43.166Z,0.50
2018-11-20T05:36:29.297Z,0.50
2018-11-20T05:39:34.462Z,0.50
2018-11-20T05:42:10.981Z,0.50
2018-11-20T05:44:56.478Z,0.60
2018-11-20T05:47:40.974Z,0.60
2018-11-20T05:50:46.087Z,0.60
2018-11-20T05:53:32.254Z,0.60
2018-11-20T05:56:18.121Z,0.60
2018-11-20T05:58:54.924Z,0.70
2018-11-20T06:01:54.059Z,0.70
2018-11-20T06:04:49.876Z,0.70
2018-11-20T06:07:35.285Z,0.70
2018-11-20T06:10:22.279Z,0.70
2018-11-20T06:13:24.710Z,0.80
2018-11-20T06:16:10.779Z,0.80
2018-11-20T06:19:03.648Z,0.80
2018-11-20T06:21:58.158Z,0.80
2018-11-20T06:24:41.785Z,0.90
2018-11-20T06:27:28.778Z,0.90
2018-11-20T06:30:15.694Z,0.90
2018-11-20T06:32:52.871Z,0.90
2018-11-20T06:35:54.587Z,0.90
2018-11-20T06:38:41.335Z,0.90
2018-11-20T06:41:37.211Z,0.90
2018-11-20T06:44:42.568Z,0.90
2018-11-20T06:47:23.947Z,0.90
2018-11-20T06:50:17.258Z,1.00
2018-11-20T06:53:00.253Z,1.00
2018-11-20T06:56:01.728Z,1.10
2018-11-20T06:58:47.389Z,1.10
2018-11-20T07:01:33.307Z,1.20
2018-11-20T07:04:20.105Z,1.20
2018-11-20T07:07:10.218Z,1.20
2018-11-20T07:11:42.954Z,1.20
2018-11-20T07:14:30.855Z,1.20
2018-11-20T07:17:26.828Z,1.20
2018-11-20T07:20:12.851Z,1.20
2018-11-20T07:22:59.851Z,1.20
2018-11-20T07:25:53.125Z,1.20
2018-11-20T07:28:40.014Z,1.20
2018-11-20T07:31:25.876Z,1.20
2018-11-20T07:34:24.945Z,1.20
2018-11-20T07:37:06.767Z,1.20
2018-11-20T07:40:02.819Z,1.10
2018-11-20T07:42:55.418Z,1.10
2018-11-20T07:45:41.037Z,1.20
2018-11-20T07:48:34.282Z,1.20
2018-11-20T07:51:21.197Z,1.20
2018-11-20T07:54:17.414Z,1.10
2018-11-20T07:57:13.379Z,1.10
2018-11-20T08:00:05.862Z,1.10
2018-11-20T08:02:58.529Z,1.20
2018-11-20T08:05:44.269Z,1.30
2018-11-20T08:08:22.620Z,1.40
2018-11-20T08:11:06.971Z,1.40
2018-11-20T08:14:02.877Z,1.50
2018-11-20T08:16:48.749Z,1.60
2018-11-20T08:19:40.910Z,1.70
2018-11-20T08:22:26.735Z,2.00
2018-11-20T08:25:12.849Z,2.00
2018-11-20T08:28:01.400Z,2.10
2018-11-20T08:30:51.579Z,2.00
2018-11-20T08:33:41.336Z,2.00
2018-11-20T08:36:23.856Z,2.20
2018-11-20T08:39:14.528Z,2.30
2018-11-20T08:42:03.025Z,2.50
2018-11-20T08:44:48.860Z,2.60
2018-11-20T08:47:41.973Z,2.50
2018-11-20T08:50:44.049Z,2.70
2018-11-20T08:53:30.240Z,3.00
2018-11-20T08:56:23.191Z,2.60
2018-11-20T08:59:00.439Z,2.40
2018-11-20T09:01:45.845Z,2.60
2018-11-20T09:04:31.751Z,2.40
2018-11-20T09:07:17.554Z,2.40
2018-11-20T09:10:16.974Z,2.50
2018-11-20T09:13:18.882Z,2.50
2018-11-20T09:15:56.937Z,2.60
2018-11-20T09:19:02.017Z,2.70
2018-11-20T09:22:07.402Z,2.60
2018-11-20T09:25:03.234Z,2.50
2018-11-20T09:28:05.043Z,2.70
2018-11-20T09:30:54.629Z,2.60
2018-11-20T09:33:50.771Z,2.70
2018-11-20T09:36:27.862Z,2.80
2018-11-20T09:39:03.101Z,2.80
2018-11-20T09:41:59.160Z,2.90
2018-11-20T09:44:52.862Z,3.10
2018-11-20T09:47:45.791Z,3.00
2018-11-20T09:50:31.059Z,3.10
2018-11-20T09:53:16.609Z,3.10
2018-11-20T09:56:04.078Z,3.10
2018-11-20T09:58:48.303Z,3.20
2018-11-20T10:01:53.578Z,3.30
2018-11-20T10:04:39.336Z,3.40
2018-11-20T10:07:32.340Z,3.30
2018-11-20T10:10:16.356Z,3.40
2018-11-20T10:13:01.843Z,3.50
2018-11-20T10:15:48.124Z,3.60
2018-11-20T10:18:33.909Z,3.60
2018-11-20T10:21:20.946Z,3.60
2018-11-20T10:24:11.231Z,3.60
2018-11-20T10:26:56.827Z,3.70
2018-11-20T10:29:44.329Z,3.70
2018-11-20T10:32:30.427Z,3.70
2018-11-20T10:35:41.872Z,3.80
2018-11-20T10:38:41.011Z,3.90
2018-11-20T10:41:26.901Z,4.10
2018-11-20T10:44:20.235Z,4.10
2018-11-20T10:46:58.421Z,4.10
2018-11-20T10:49:56.733Z,4.10
2018-11-20T10:52:52.683Z,4.10
2018-11-20T10:55:35.159Z,4.20
2018-11-20T10:58:20.990Z,4.20
2018-11-20T11:01:10.386Z,4.20
2018-11-20T11:04:12.520Z,4.40
2018-11-20T11:07:00.993Z,4.40
2018-11-20T11:09:46.694Z,4.50
2018-11-20T11:12:40.235Z,4.60
2018-11-20T11:15:42.551Z,4.50
2018-11-20T11:18:32.558Z,4.50
2018-11-20T11:21:14.422Z,4.60
2018-11-20T11:24:13.469Z,4.60
2018-11-20T11:27:03.105Z,4.60
2018-11-20T11:29:44.620Z,4.60
2018-11-20T11:32:36.317Z,4.70
2018-11-20T11:35:22.430Z,4.70
2018-11-20T11:38:00.518Z,4.70
2018-11-20T11:40:46.337Z,4.80
2018-11-20T11:43:33.919Z,4.90
2018-11-20T11:46:23.888Z,4.90
2018-11-20T11:49:10.885Z,4.90
2018-11-20T11:51:54.537Z,4.90
2018-11-20T11:54:56.663Z,4.90
2018-11-20T11:57:49.392Z,4.80
2018-11-20T12:00:39.043Z,4.90
2018-11-20T12:03:15.761Z,4.90
2018-11-20T12:06:01.910Z,4.90
2018-11-20T12:08:49.004Z,5.00
2018-11-20T12:11:36.082Z,5.10
2018-11-20T12:14:12.031Z,5.00
2018-11-20T12:17:08.198Z,5.00
2018-11-20T12:20:04.793Z,5.00
2018-11-20T12:22:50.558Z,5.00
2018-11-20T12:25:29.222Z,5.00
2018-11-20T12:28:34.820Z,5.00
2018-11-20T12:31:28.746Z,5.00
2018-11-20T12:34:26.275Z,5.00
2018-11-20T12:37:24.553Z,5.00
2018-11-20T12:40:14.565Z,5.00
2018-11-20T12:43:05.803Z,5.10
2018-11-20T12:45:59.198Z,5.20
2018-11-20T12:49:02.145Z,5.10
2018-11-20T12:51:48.746Z,5.10
2018-11-20T12:54:35.030Z,5.10
2018-11-20T12:57:22.012Z,5.10
2018-11-20T13:00:07.875Z,5.00
2018-11-20T13:02:53.686Z,5.00
2018-11-20T13:05:46.726Z,5.10
2018-11-20T13:08:32.370Z,5.00
2018-11-20T13:11:18.025Z,5.00
2018-11-20T13:14:04.006Z,5.00
2018-11-20T13:16:49.576Z,5.10
2018-11-20T13:19:38.488Z,5.10
2018-11-20T13:22:18.852Z,5.10
2018-11-20T13:24:58.025Z,5.00
2018-11-20T13:27:44.171Z,5.00
2018-11-20T13:30:47.022Z,5.00
2018-11-20T13:33:25.669Z,5.00
2018-11-20T13:36:23.323Z,5.00
2018-11-20T13:39:25.398Z,5.00
2018-11-20T13:42:14.662Z,4.90
2018-11-20T13:45:20.945Z,4.90
2018-11-20T13:48:06.593Z,4.90
2018-11-20T13:50:51.918Z,4.80
2018-11-20T13:53:40.819Z,4.80
2018-11-20T13:56:39.341Z,4.70
2018-11-20T13:59:41.233Z,4.70
2018-11-20T14:02:33.847Z,4.70
2018-11-20T14:05:35.784Z,4.60
2018-11-20T14:08:28.628Z,4.60
2018-11-20T14:11:25.091Z,4.60
2018-11-20T14:14:14.817Z,4.50
2018-11-20T14:16:59.951Z,4.50
2018-11-20T14:19:37.050Z,4.50
2018-11-20T14:22:22.130Z,4.50
2018-11-20T14:25:21.689Z,4.50
2018-11-20T14:27:57.419Z,4.40
2018-11-20T14:30:41.485Z,4.30
2018-11-20T14:33:29.963Z,4.20
2018-11-20T14:36:15.125Z,4.10
2018-11-20T14:39:11.169Z,4.10
2018-11-20T14:42:06.841Z,4.10
2018-11-20T14:44:56.351Z,4.00
2018-11-20T14:47:41.751Z,3.90
2018-11-20T14:50:26.775Z,3.80
2018-11-20T14:53:25.329Z,3.80
2018-11-20T14:56:15.289Z,3.70
2018-11-20T14:59:01.602Z,3.60
2018-11-20T15:01:47.484Z,3.60
2018-11-20T15:04:49.588Z,3.50
2018-11-20T15:07:29.675Z,3.50
2018-11-20T15:10:20.576Z,3.40
2018-11-20T15:13:07.664Z,3.30
2018-11-20T15:15:57.371Z,3.10
2018-11-20T15:18:47.009Z,3.00
2018-11-20T15:21:49.054Z,2.90
2018-11-20T15:24:40.810Z,2.70
2018-11-20T15:27:26.578Z,2.60
2018-11-20T15:30:18.626Z,2.60
2018-11-20T15:33:04.260Z,2.40
2018-11-20T15:35:59.981Z,2.30
2018-11-20T15:38:45.380Z,2.20
2018-11-20T15:41:44.710Z,2.10
2018-11-20T15:44:30.295Z,2.00
2018-11-20T15:47:16.173Z,1.90
2018-11-20T15:50:15.461Z,1.90
2018-11-20T15:52:52.632Z,1.80
2018-11-20T15:55:39.660Z,1.60
2018-11-20T15:58:25.366Z,1.60
2018-11-20T16:01:11.465Z,1.60
2018-11-20T16:04:00.003Z,1.50
2018-11-20T16:06:47.746Z,1.50
2018-11-20T16:09:43.709Z,1.30
2018-11-20T16:12:33.640Z,1.20
2018-11-20T16:15:20.588Z,1.10
2018-11-20T16:18:06.159Z,1.00
2018-11-20T16:20:46.525Z,0.90
2018-11-20T16:23:42.750Z,0.90
2018-11-20T16:26:29.704Z,0.80
2018-11-20T16:29:25.613Z,0.80
2018-11-20T16:32:11.236Z,0.70
2018-11-20T16:34:56.839Z,0.60
2018-11-20T16:37:42.268Z,0.50
2018-11-20T16:40:28.205Z,0.60
2018-11-20T16:43:24.921Z,0.60
2018-11-20T16:46:11.930Z,0.50
2018-11-20T16:48:57.694Z,0.50
2018-11-20T16:51:47.594Z,0.40
2018-11-20T16:54:34.953Z,0.30
2018-11-20T16:57:20.776Z,0.20
2018-11-20T17:00:23.296Z,0.10
2018-11-20T17:03:13.335Z,0.00
2018-11-20T17:06:09.235Z,-0.30
2018-11-20T17:09:11.565Z,-0.60
2018-11-20T17:12:00.049Z,-0.70
2018-11-20T17:15:05.507Z,-0.80
2018-11-20T17:17:52.979Z,-0.80
2018-11-20T17:20:53.464Z,-0.90
2018-11-20T17:23:52.385Z,-1.00
2018-11-20T17:26:38.250Z,-1.10
2018-11-20T17:29:24.360Z,-1.00
2018-11-20T17:32:17.440Z,-1.00
2018-11-20T17:35:02.756Z,-1.00
2018-11-20T17:37:52.763Z,-1.10
2018-11-20T17:40:38.689Z,-1.20
2018-11-20T17:43:21.669Z,-1.30
2018-11-20T17:46:14.645Z,-1.20
2018-11-20T17:49:01.600Z,-1.30
2018-11-20T17:51:47.725Z,-1.20
2018-11-20T17:54:33.056Z,-1.20
2018-11-20T17:57:18.735Z,-1.30
2018-11-20T18:00:12.049Z,-1.10
2018-11-20T18:02:59.096Z,-1.20
2018-11-20T18:05:40.946Z,-1.50
2018-11-20T18:08:31.643Z,-1.60
2018-11-20T18:11:10.199Z,-1.80
2018-11-20T18:14:00.258Z,-1.80
2018-11-20T18:16:57.922Z,-1.80
2018-11-20T18:19:44.887Z,-1.90
2018-11-20T18:22:27.858Z,-1.90
2018-11-20T18:25:17.550Z,-1.90
2018-11-20T18:27:54.735Z,-1.70
2018-11-20T18:30:56.975Z,-1.70
2018-11-20T18:33:46.840Z,-1.80
2018-11-20T18:36:22.809Z,-1.90
2018-11-20T18:39:08.233Z,-2.20
2018-11-20T18:42:01.155Z,-2.30
2018-11-20T18:44:54.016Z,-2.10
2018-11-20T18:47:43.650Z,-2.00
2018-11-20T18:50:36.455Z,-1.60
2018-11-20T18:53:22.863Z,-1.40
2018-11-20T18:56:12.033Z,-1.20
2018-11-20T18:58:59.052Z,-1.10
2018-11-20T19:01:45.029Z,-1.10
2018-11-20T19:04:24.936Z,-0.90
2018-11-20T19:07:17.965Z,-1.00
2018-11-20T19:09:56.909Z,-1.00
2018-11-20T19:12:43.922Z,-1.10
2018-11-20T19:15:29.759Z,-1.10
2018-11-20T19:18:16.729Z,-1.00
2018-11-20T19:21:02.452Z,-1.10
2018-11-20T19:24:01.725Z,-1.00
2018-11-20T19:26:51.511Z,-1.10
2018-11-20T19:29:38.444Z,-1.10
2018-11-20T19:32:21.354Z,-1.00
2018-11-20T19:34:59.265Z,-1.10
2018-11-20T19:37:45.038Z,-1.20
2018-11-20T19:40:30.895Z,-1.20
2018-11-20T19:43:11.787Z,-1.30
2018-11-20T19:45:57.286Z,-1.30
2018-11-20T19:48:42.302Z,-1.30
2018-11-20T19:51:29.212Z,-1.30
2018-11-20T19:54:25.027Z,-1.30
2018-11-20T19:57:10.622Z,-1.40
2018-11-20T20:00:02.522Z,-1.50
2018-11-20T20:02:55.343Z,-1.60
2018-11-20T20:05:45.369Z,-1.80
2018-11-20T20:08:47.608Z,-1.80
2018-11-20T20:11:33.021Z,-1.70
2018-11-20T20:14:26.002Z,-1.80
2018-11-20T20:17:28.202Z,-1.80
2018-11-20T20:20:33.696Z,-1.90
2018-11-20T20:23:20.727Z,-1.80
2018-11-20T20:26:04.693Z,-1.70
2018-11-20T20:28:50.264Z,-1.70
2018-11-20T20:31:27.992Z,-1.70
2018-11-20T20:34:06.320Z,-1.70
2018-11-20T20:37:05.441Z,-1.70
2018-11-20T20:40:01.533Z,-1.80
2018-11-20T20:42:58.184Z,-1.80
2018-11-20T20:45:41.993Z,-1.70
2018-11-20T20:48:47.408Z,-1.60
2018-11-20T20:51:37.434Z,-1.50
2018-11-20T20:54:38.151Z,-1.60
2018-11-20T20:57:24.109Z,-1.50
2018-11-20T21:00:17.089Z,-1.60
2018-11-20T21:03:13.172Z,-1.50
2018-11-20T21:06:00.969Z,-1.60
2018-11-20T21:08:46.531Z,-1.60
2018-11-20T21:11:51.921Z,-1.60
2018-11-20T21:14:32.367Z,-1.60
2018-11-20T21:17:19.459Z,-1.70
2018-11-20T21:20:05.398Z,-1.80
2018-11-20T21:23:04.779Z,-1.80
2018-11-20T21:26:01.359Z,-1.80
2018-11-20T21:28:48.291Z,-1.80
2018-11-20T21:31:38.153Z,-1.90
2018-11-20T21:34:24.023Z,-1.80
2018-11-20T21:37:20.187Z,-1.70
2018-11-20T21:40:09.390Z,-1.40
2018-11-20T21:42:55.201Z,-1.10
2018-11-20T21:45:41.004Z,-0.90
2018-11-20T21:48:34.150Z,-0.90
2018-11-20T21:51:12.489Z,-0.90
2018-11-20T21:54:11.357Z,-0.90
2018-11-20T21:57:07.344Z,-0.80
2018-11-20T21:59:56.681Z,-0.70
2018-11-20T22:02:59.053Z,-0.60
2018-11-20T22:05:51.601Z,-0.60
2018-11-20T22:08:57.301Z,-0.50
2018-11-20T22:11:42.883Z,-0.40
2018-11-20T22:14:29.962Z,-0.40
2018-11-20T22:17:15.829Z,-0.40
2018-11-20T22:20:17.620Z,-0.40
2018-11-20T22:23:13.842Z,-0.40
2018-11-20T22:25:59.669Z,-0.30
2018-11-20T22:28:41.376Z,-0.30
2018-11-20T22:31:34.177Z,-0.30
2018-11-20T22:34:19.843Z,-0.40
2018-11-20T22:37:15.650Z,-0.40
2018-11-20T22:40:11.877Z,-0.40
2018-11-20T22:43:01.512Z,-0.50
2018-11-20T22:46:06.765Z,-0.50
2018-11-20T22:48:52.512Z,-0.50
2018-11-20T22:51:39.519Z,-0.50
2018-11-20T22:54:18.058Z,-0.50
2018-11-20T22:57:23.374Z,-0.50
2018-11-20T23:00:13.351Z,-0.50
2018-11-20T23:02:58.981Z,-0.50
2018-11-20T23:05:54.246Z,-0.50
2018-11-20T23:08:21.756Z,-0.50
2018-11-20T23:10:49.394Z,-0.50
2018-11-20T23:13:16.950Z,-0.50
2018-11-20T23:15:44.626Z,-0.60
2018-11-20T23:18:12.056Z,-0.60
2018-11-20T23:20:39.626Z,-0.60
2018-11-20T23:23:07.214Z,-0.50
2018-11-20T23:25:34.816Z,-0.50
2018-11-20T23:28:02.243Z,-0.60
2018-11-20T23:30:29.839Z,-0.60
2018-11-20T23:32:57.323Z,-0.60
2018-11-20T23:35:24.795Z,-0.70
2018-11-20T23:37:52.303Z,-0.60
2018-11-20T23:40:19.916Z,-0.60
2018-11-20T23:42:47.540Z,-0.50
2018-11-20T23:45:15.415Z,-0.50
2018-11-20T23:47:43.371Z,-0.50
2018-11-20T23:52:34.716Z,-0.50
2018-11-20T23:55:02.284Z,-0.50
2018-11-20T23:57:29.808Z,-0.50
2018-11-20T23:59:57.358Z,-0.50
